sensor_id;sensor_type;location;lat;lon;timestamp;pressure;altitude;pressure_sealevel;temperature;humidity
5996;BME280;3026;53.612;7.278;2024-02-14T00:01:16;101216.19;;;6.75;100.00
5996;BME280;3026;53.612;7.278;2024-02-14T00:03:44;101214.50;;;6.74;100.00
5996;BME280;3026;53.612;7.278;2024-02-14T00:06:11;101212.78;;;6.73;100.00
5996;BME280;3026;53.612;7.278;2024-02-14T00:08:39;101201.09;;;6.72;100.00
5996;BME280;3026;53.612;7.278;2024-02-14T00:11:06;101203.91;;;6.71;100.00
5996;BME280;3026;53.612;7.278;2024-02-14T00:13:33;101195.78;;;6.71;100.00
5996;BME280;3026;53.612;7.278;2024-02-14T00:16:00;101193.06;;;6.71;100.00
5996;BME280;3026;53.612;7.278;2024-02-14T00:18:29;101187.63;;;6.71;100.00
5996;BME280;3026;53.612;7.278;2024-02-14T00:20:58;101187.63;;;6.71;100.00
5996;BME280;3026;53.612;7.278;2024-02-14T00:23:26;101191.34;;;6.70;100.00
5996;BME280;3026;53.612;7.278;2024-02-14T00:25:53;101177.94;;;6.68;100.00
5996;BME280;3026;53.612;7.278;2024-02-14T00:28:22;101180.50;;;6.70;100.00
5996;BME280;3026;53.612;7.278;2024-02-14T00:30:52;101184.06;;;6.70;100.00
5996;BME280;3026;53.612;7.278;2024-02-14T00:33:19;101171.38;;;6.71;100.00
5996;BME280;3026;53.612;7.278;2024-02-14T00:35:49;101169.66;;;6.70;100.00
5996;BME280;3026;53.612;7.278;2024-02-14T00:38:17;101161.44;;;6.71;100.00
5996;BME280;3026;53.612;7.278;2024-02-14T00:40:44;101162.28;;;6.72;100.00
5996;BME280;3026;53.612;7.278;2024-02-14T00:43:13;101152.31;;;6.72;100.00
5996;BME280;3026;53.612;7.278;2024-02-14T00:45:40;101150.59;;;6.71;100.00
5996;BME280;3026;53.612;7.278;2024-02-14T00:48:08;101135.19;;;6.72;100.00
5996;BME280;3026;53.612;7.278;2024-02-14T00:50:36;101133.19;;;6.74;100.00
5996;BME280;3026;53.612;7.278;2024-02-14T00:53:06;101134.91;;;6.75;100.00
5996;BME280;3026;53.612;7.278;2024-02-14T00:55:33;101131.19;;;6.76;100.00
5996;BME280;3026;53.612;7.278;2024-02-14T00:58:02;101126.75;;;6.75;100.00
5996;BME280;3026;53.612;7.278;2024-02-14T01:00:29;101120.34;;;6.76;100.00
5996;BME280;3026;53.612;7.278;2024-02-14T01:02:57;101119.50;;;6.76;100.00
5996;BME280;3026;53.612;7.278;2024-02-14T01:05:24;101109.50;;;6.76;100.00
5996;BME280;3026;53.612;7.278;2024-02-14T01:07:52;101107.78;;;6.75;100.00
5996;BME280;3026;53.612;7.278;2024-02-14T01:10:22;101096.94;;;6.75;100.00
5996;BME280;3026;53.612;7.278;2024-02-14T01:12:51;101102.38;;;6.75;100.00
5996;BME280;3026;53.612;7.278;2024-02-14T01:15:18;101104.09;;;6.76;100.00
5996;BME280;3026;53.612;7.278;2024-02-14T01:17:48;101096.94;;;6.75;100.00
5996;BME280;3026;53.612;7.278;2024-02-14T01:20:15;101095.25;;;6.74;100.00
5996;BME280;3026;53.612;7.278;2024-02-14T01:22:42;101088.13;;;6.73;100.00
5996;BME280;3026;53.612;7.278;2024-02-14T01:25:16;101086.41;;;6.72;100.00
5996;BME280;3026;53.612;7.278;2024-02-14T01:27:45;101086.25;;;6.73;100.00
5996;BME280;3026;53.612;7.278;2024-02-14T01:30:15;101085.25;;;6.75;100.00
5996;BME280;3026;53.612;7.278;2024-02-14T01:32:42;101075.56;;;6.72;100.00
5996;BME280;3026;53.612;7.278;2024-02-14T01:35:10;101075.56;;;6.72;100.00
5996;BME280;3026;53.612;7.278;2024-02-14T01:37:38;101075.56;;;6.72;100.00
5996;BME280;3026;53.612;7.278;2024-02-14T01:40:08;101074.72;;;6.71;100.00
5996;BME280;3026;53.612;7.278;2024-02-14T01:42:35;101073.81;;;6.71;100.00
5996;BME280;3026;53.612;7.278;2024-02-14T01:45:05;101068.41;;;6.71;100.00
5996;BME280;3026;53.612;7.278;2024-02-14T01:47:32;101067.56;;;6.70;100.00
5996;BME280;3026;53.612;7.278;2024-02-14T01:50:07;101069.41;;;6.70;100.00
5996;BME280;3026;53.612;7.278;2024-02-14T01:52:36;101068.41;;;6.71;100.00
5996;BME280;3026;53.612;7.278;2024-02-14T01:55:07;101057.56;;;6.71;100.00
5996;BME280;3026;53.612;7.278;2024-02-14T01:57:35;101062.97;;;6.71;100.00
5996;BME280;3026;53.612;7.278;2024-02-14T02:00:07;101052.16;;;6.71;100.00
5996;BME280;3026;53.612;7.278;2024-02-14T02:02:34;101053.88;;;6.72;100.00
5996;BME280;3026;53.612;7.278;2024-02-14T02:05:06;101041.31;;;6.71;100.00
5996;BME280;3026;53.612;7.278;2024-02-14T02:07:33;101043.03;;;6.72;100.00
5996;BME280;3026;53.612;7.278;2024-02-14T02:10:01;101037.47;;;6.73;100.00
5996;BME280;3026;53.612;7.278;2024-02-14T02:12:29;101038.34;;;6.74;100.00
5996;BME280;3026;53.612;7.278;2024-02-14T02:14:58;101026.50;;;6.75;100.00
5996;BME280;3026;53.612;7.278;2024-02-14T02:17:27;101019.06;;;6.77;100.00
5996;BME280;3026;53.612;7.278;2024-02-14T02:19:54;101017.34;;;6.76;100.00
5996;BME280;3026;53.612;7.278;2024-02-14T02:22:23;101015.34;;;6.78;100.00
5996;BME280;3026;53.612;7.278;2024-02-14T02:24:52;101012.66;;;6.78;100.00
5996;BME280;3026;53.612;7.278;2024-02-14T02:27:19;101006.22;;;6.79;100.00
5996;BME280;3026;53.612;7.278;2024-02-14T02:29:46;101005.22;;;6.80;100.00
5996;BME280;3026;53.612;7.278;2024-02-14T02:32:13;101004.38;;;6.80;100.00
5996;BME280;3026;53.612;7.278;2024-02-14T02:34:42;101004.22;;;6.81;100.00
5996;BME280;3026;53.612;7.278;2024-02-14T02:37:10;100995.09;;;6.82;100.00
5996;BME280;3026;53.612;7.278;2024-02-14T02:39:38;100992.38;;;6.82;100.00
5996;BME280;3026;53.612;7.278;2024-02-14T02:42:07;100981.41;;;6.84;100.00
5996;BME280;3026;53.612;7.278;2024-02-14T02:44:42;100987.69;;;6.84;100.00
5996;BME280;3026;53.612;7.278;2024-02-14T02:47:09;100982.28;;;6.84;100.00
5996;BME280;3026;53.612;7.278;2024-02-14T02:49:38;100976.84;;;6.84;100.00
5996;BME280;3026;53.612;7.278;2024-02-14T02:52:05;100978.56;;;6.85;100.00
5996;BME280;3026;53.612;7.278;2024-02-14T02:54:34;100966.84;;;6.85;100.00
5996;BME280;3026;53.612;7.278;2024-02-14T02:57:01;100968.41;;;6.87;100.00
5996;BME280;3026;53.612;7.278;2024-02-14T02:59:31;100957.56;;;6.87;100.00
5996;BME280;3026;53.612;7.278;2024-02-14T03:01:58;100954.00;;;6.87;100.00
5996;BME280;3026;53.612;7.278;2024-02-14T03:04:25;100951.16;;;6.88;100.00
5996;BME280;3026;53.612;7.278;2024-02-14T03:06:52;100940.31;;;6.88;100.00
5996;BME280;3026;53.612;7.278;2024-02-14T03:09:20;100943.72;;;6.90;100.00
5996;BME280;3026;53.612;7.278;2024-02-14T03:11:49;100937.28;;;6.91;100.00
5996;BME280;3026;53.612;7.278;2024-02-14T03:14:16;100940.88;;;6.92;100.00
5996;BME280;3026;53.612;7.278;2024-02-14T03:16:46;100936.28;;;6.92;100.00
5996;BME280;3026;53.612;7.278;2024-02-14T03:19:13;100934.28;;;6.94;100.00
5996;BME280;3026;53.612;7.278;2024-02-14T03:21:40;100934.16;;;6.96;100.00
5996;BME280;3026;53.612;7.278;2024-02-14T03:24:08;100926.88;;;6.96;100.00
5996;BME280;3026;53.612;7.278;2024-02-14T03:26:36;100928.59;;;6.97;100.00
5996;BME280;3026;53.612;7.278;2024-02-14T03:29:04;100926.59;;;6.99;100.00
5996;BME280;3026;53.612;7.278;2024-02-14T03:31:32;100933.72;;;7.00;100.00
5996;BME280;3026;53.612;7.278;2024-02-14T03:34:01;100930.00;;;7.01;100.00
5996;BME280;3026;53.612;7.278;2024-02-14T03:36:29;100930.00;;;7.01;100.00
5996;BME280;3026;53.612;7.278;2024-02-14T03:38:56;100913.44;;;7.05;100.00
5996;BME280;3026;53.612;7.278;2024-02-14T03:41:25;100912.56;;;7.04;100.00
5996;BME280;3026;53.612;7.278;2024-02-14T03:43:53;100911.44;;;7.07;100.00
5996;BME280;3026;53.612;7.278;2024-02-14T03:46:24;100908.59;;;7.08;100.00
5996;BME280;3026;53.612;7.278;2024-02-14T03:48:52;100908.44;;;7.10;100.00
5996;BME280;3026;53.612;7.278;2024-02-14T03:51:23;100903.72;;;7.12;100.00
5996;BME280;3026;53.612;7.278;2024-02-14T03:53:50;100904.41;;;7.14;100.00
5996;BME280;3026;53.612;7.278;2024-02-14T03:56:18;100908.81;;;7.15;100.00
5996;BME280;3026;53.612;7.278;2024-02-14T03:58:45;100903.13;;;7.18;100.00
5996;BME280;3026;53.612;7.278;2024-02-14T04:01:16;100896.69;;;7.19;100.00
5996;BME280;3026;53.612;7.278;2024-02-14T04:03:46;100901.13;;;7.20;100.00
5996;BME280;3026;53.612;7.278;2024-02-14T04:06:13;100899.97;;;7.22;100.00
5996;BME280;3026;53.612;7.278;2024-02-14T04:08:42;100897.09;;;7.24;100.00
5996;BME280;3026;53.612;7.278;2024-02-14T04:11:09;100895.06;;;7.26;100.00
5996;BME280;3026;53.612;7.278;2024-02-14T04:13:39;100905.63;;;7.29;100.00
5996;BME280;3026;53.612;7.278;2024-02-14T04:16:06;100893.78;;;7.30;100.00
5996;BME280;3026;53.612;7.278;2024-02-14T04:18:34;100901.63;;;7.33;100.00
5996;BME280;3026;53.612;7.278;2024-02-14T04:21:01;100894.19;;;7.35;100.00
5996;BME280;3026;53.612;7.278;2024-02-14T04:23:29;100897.59;;;7.37;100.00
5996;BME280;3026;53.612;7.278;2024-02-14T04:25:59;100906.44;;;7.39;100.00
5996;BME280;3026;53.612;7.278;2024-02-14T04:28:26;100900.84;;;7.41;100.00
5996;BME280;3026;53.612;7.278;2024-02-14T04:30:53;100902.44;;;7.43;100.00
5996;BME280;3026;53.612;7.278;2024-02-14T04:33:22;100896.00;;;7.44;100.00
5996;BME280;3026;53.612;7.278;2024-02-14T04:35:49;100895.84;;;7.46;100.00
5996;BME280;3026;53.612;7.278;2024-02-14T04:38:17;100901.81;;;7.49;100.00
5996;BME280;3026;53.612;7.278;2024-02-14T04:40:45;100903.50;;;7.50;100.00
5996;BME280;3026;53.612;7.278;2024-02-14T04:43:13;100896.06;;;7.52;100.00
5996;BME280;3026;53.612;7.278;2024-02-14T04:45:41;100898.78;;;7.52;100.00
5996;BME280;3026;53.612;7.278;2024-02-14T04:48:10;100890.38;;;7.55;100.00
5996;BME280;3026;53.612;7.278;2024-02-14T04:50:37;100897.34;;;7.58;100.00
5996;BME280;3026;53.612;7.278;2024-02-14T04:53:04;100895.47;;;7.58;100.00
5996;BME280;3026;53.612;7.278;2024-02-14T04:55:32;100892.59;;;7.60;100.00
5996;BME280;3026;53.612;7.278;2024-02-14T04:58:00;100895.88;;;7.64;100.00
5996;BME280;3026;53.612;7.278;2024-02-14T05:00:29;100896.75;;;7.64;100.00
5996;BME280;3026;53.612;7.278;2024-02-14T05:02:56;100892.00;;;7.66;100.00
5996;BME280;3026;53.612;7.278;2024-02-14T05:05:24;100896.28;;;7.69;100.00
5996;BME280;3026;53.612;7.278;2024-02-14T05:07:52;100894.25;;;7.71;100.00
5996;BME280;3026;53.612;7.278;2024-02-14T05:10:25;100893.25;;;7.72;100.00
5996;BME280;3026;53.612;7.278;2024-02-14T05:12:53;100893.94;;;7.74;100.00
5996;BME280;3026;53.612;7.278;2024-02-14T05:15:20;100891.97;;;7.76;100.00
5996;BME280;3026;53.612;7.278;2024-02-14T05:17:49;100889.94;;;7.78;100.00
5996;BME280;3026;53.612;7.278;2024-02-14T05:20:17;100895.91;;;7.81;100.00
5996;BME280;3026;53.612;7.278;2024-02-14T05:22:46;100898.47;;;7.83;100.00
5996;BME280;3026;53.612;7.278;2024-02-14T05:25:18;100900.16;;;7.84;100.00
5996;BME280;3026;53.612;7.278;2024-02-14T05:27:45;100900.72;;;7.87;100.00
5996;BME280;3026;53.612;7.278;2024-02-14T05:30:13;100900.25;;;7.92;100.00
5996;BME280;3026;53.612;7.278;2024-02-14T05:32:40;100897.22;;;7.95;100.00
5996;BME280;3026;53.612;7.278;2024-02-14T05:35:09;100899.78;;;7.97;100.00
5996;BME280;3026;53.612;7.278;2024-02-14T05:37:36;100901.03;;;8.02;100.00
5996;BME280;3026;53.612;7.278;2024-02-14T05:40:07;100898.88;;;8.06;100.00
5996;BME280;3026;53.612;7.278;2024-02-14T05:42:34;100906.56;;;8.10;100.00
5996;BME280;3026;53.612;7.278;2024-02-14T05:45:03;100902.84;;;8.11;100.00
5996;BME280;3026;53.612;7.278;2024-02-14T05:47:31;100904.22;;;8.15;100.00
5996;BME280;3026;53.612;7.278;2024-02-14T05:49:58;100913.06;;;8.17;100.00
5996;BME280;3026;53.612;7.278;2024-02-14T05:52:26;100905.59;;;8.19;100.00
5996;BME280;3026;53.612;7.278;2024-02-14T05:54:55;100905.31;;;8.23;100.00
5996;BME280;3026;53.612;7.278;2024-02-14T05:57:22;100915.88;;;8.26;100.00
5996;BME280;3026;53.612;7.278;2024-02-14T05:59:50;100910.13;;;8.29;100.00
5996;BME280;3026;53.612;7.278;2024-02-14T06:02:18;100913.34;;;8.32;100.00
5996;BME280;3026;53.612;7.278;2024-02-14T06:04:47;100912.25;;;8.35;100.00
5996;BME280;3026;53.612;7.278;2024-02-14T06:07:14;100912.94;;;8.37;100.00
5996;BME280;3026;53.612;7.278;2024-02-14T06:09:43;100913.63;;;8.39;100.00
5996;BME280;3026;53.612;7.278;2024-02-14T06:12:11;100919.75;;;8.41;100.00
5996;BME280;3026;53.612;7.278;2024-02-14T06:14:38;100919.44;;;8.44;100.00
5996;BME280;3026;53.612;7.278;2024-02-14T06:17:05;100926.28;;;8.48;100.00
5996;BME280;3026;53.612;7.278;2024-02-14T06:19:32;100924.25;;;8.50;100.00
5996;BME280;3026;53.612;7.278;2024-02-14T06:22:00;100923.09;;;8.53;100.00
5996;BME280;3026;53.612;7.278;2024-02-14T06:24:27;100925.34;;;8.57;100.00
5996;BME280;3026;53.612;7.278;2024-02-14T06:26:56;100928.75;;;8.59;100.00
5996;BME280;3026;53.612;7.278;2024-02-14T06:29:24;100928.59;;;8.61;100.00
5996;BME280;3026;53.612;7.278;2024-02-14T06:31:51;100932.84;;;8.63;100.00
5996;BME280;3026;53.612;7.278;2024-02-14T06:34:21;100936.09;;;8.67;100.00
5996;BME280;3026;53.612;7.278;2024-02-14T06:36:48;100940.41;;;8.69;100.00
5996;BME280;3026;53.612;7.278;2024-02-14T06:39:16;100943.81;;;8.71;100.00
5996;BME280;3026;53.612;7.278;2024-02-14T06:41:44;100942.63;;;8.74;100.00
5996;BME280;3026;53.612;7.278;2024-02-14T06:44:14;100948.75;;;8.76;100.00
5996;BME280;3026;53.612;7.278;2024-02-14T06:46:41;100944.84;;;8.78;100.00
5996;BME280;3026;53.612;7.278;2024-02-14T06:49:08;100949.16;;;8.81;100.00
5996;BME280;3026;53.612;7.278;2024-02-14T06:51:35;100962.59;;;8.83;100.00
5996;BME280;3026;53.612;7.278;2024-02-14T06:54:02;100956.81;;;8.86;100.00
5996;BME280;3026;53.612;7.278;2024-02-14T06:56:30;100966.53;;;8.88;100.00
5996;BME280;3026;53.612;7.278;2024-02-14T06:58:59;100967.22;;;8.90;100.00
5996;BME280;3026;53.612;7.278;2024-02-14T07:01:29;100977.94;;;8.92;100.00
5996;BME280;3026;53.612;7.278;2024-02-14T07:03:56;100975.91;;;8.94;100.00
5996;BME280;3026;53.612;7.278;2024-02-14T07:06:23;100973.91;;;8.96;100.00
5996;BME280;3026;53.612;7.278;2024-02-14T07:08:51;100977.31;;;8.98;100.00
5996;BME280;3026;53.612;7.278;2024-02-14T07:11:19;100981.56;;;9.00;100.00
5996;BME280;3026;53.612;7.278;2024-02-14T07:13:48;100985.84;;;9.03;100.00
5996;BME280;3026;53.612;7.278;2024-02-14T07:16:15;100982.13;;;9.04;100.00
5996;BME280;3026;53.612;7.278;2024-02-14T07:18:44;100981.09;;;9.05;100.00
5996;BME280;3026;53.612;7.278;2024-02-14T07:21:13;100987.06;;;9.09;100.00
5996;BME280;3026;53.612;7.278;2024-02-14T07:23:41;100989.47;;;9.12;100.00
5996;BME280;3026;53.612;7.278;2024-02-14T07:26:08;100992.03;;;9.13;100.00
5996;BME280;3026;53.612;7.278;2024-02-14T07:28:35;100987.31;;;9.15;100.00
5996;BME280;3026;53.612;7.278;2024-02-14T07:31:03;100988.00;;;9.17;100.00
5996;BME280;3026;53.612;7.278;2024-02-14T07:33:30;100994.13;;;9.19;100.00
5996;BME280;3026;53.612;7.278;2024-02-14T07:36:05;100996.50;;;9.22;100.00
5996;BME280;3026;53.612;7.278;2024-02-14T07:38:32;101001.78;;;9.24;100.00
5996;BME280;3026;53.612;7.278;2024-02-14T07:40:59;101008.81;;;9.26;100.00
5996;BME280;3026;53.612;7.278;2024-02-14T07:43:26;101008.81;;;9.26;100.00
5996;BME280;3026;53.612;7.278;2024-02-14T07:45:53;101016.63;;;9.29;100.00
5996;BME280;3026;53.612;7.278;2024-02-14T07:48:20;101015.63;;;9.30;100.00
5996;BME280;3026;53.612;7.278;2024-02-14T07:50:48;101014.59;;;9.31;100.00
5996;BME280;3026;53.612;7.278;2024-02-14T07:53:16;101012.41;;;9.35;100.00
5996;BME280;3026;53.612;7.278;2024-02-14T07:55:44;101023.00;;;9.38;100.00
5996;BME280;3026;53.612;7.278;2024-02-14T07:58:11;101018.41;;;9.39;100.00
5996;BME280;3026;53.612;7.278;2024-02-14T08:00:38;101017.06;;;9.43;100.00
5996;BME280;3026;53.612;7.278;2024-02-14T08:03:05;101017.75;;;9.45;100.00
5996;BME280;3026;53.612;7.278;2024-02-14T08:05:33;101026.59;;;9.47;100.00
5996;BME280;3026;53.612;7.278;2024-02-14T08:08:00;101023.72;;;9.48;100.00
5996;BME280;3026;53.612;7.278;2024-02-14T08:10:29;101021.69;;;9.50;100.00
5996;BME280;3026;53.612;7.278;2024-02-14T08:12:56;101023.25;;;9.53;100.00
5996;BME280;3026;53.612;7.278;2024-02-14T08:15:24;101023.94;;;9.55;100.00
5996;BME280;3026;53.612;7.278;2024-02-14T08:17:51;101027.34;;;9.57;100.00
5996;BME280;3026;53.612;7.278;2024-02-14T08:20:22;101025.31;;;9.59;100.00
5996;BME280;3026;53.612;7.278;2024-02-14T08:22:49;101021.56;;;9.60;100.00
5996;BME280;3026;53.612;7.278;2024-02-14T08:25:16;101019.56;;;9.62;100.00
5996;BME280;3026;53.612;7.278;2024-02-14T08:27:46;101022.97;;;9.64;100.00
5996;BME280;3026;53.612;7.278;2024-02-14T08:30:15;101031.81;;;9.66;100.00
5996;BME280;3026;53.612;7.278;2024-02-14T08:32:43;101030.63;;;9.69;100.00
5996;BME280;3026;53.612;7.278;2024-02-14T08:35:11;101024.00;;;9.71;100.00
5996;BME280;3026;53.612;7.278;2024-02-14T08:37:39;101030.16;;;9.73;100.00
5996;BME280;3026;53.612;7.278;2024-02-14T08:40:07;101041.75;;;9.75;100.00
5996;BME280;3026;53.612;7.278;2024-02-14T08:42:37;101035.97;;;9.78;100.00
5996;BME280;3026;53.612;7.278;2024-02-14T08:45:08;101039.38;;;9.80;100.00
5996;BME280;3026;53.612;7.278;2024-02-14T08:47:36;101033.59;;;9.83;100.00
5996;BME280;3026;53.612;7.278;2024-02-14T08:50:04;101044.19;;;9.86;100.00
5996;BME280;3026;53.612;7.278;2024-02-14T08:52:31;101042.16;;;9.88;100.00
5996;BME280;3026;53.612;7.278;2024-02-14T08:54:59;101051.69;;;9.92;100.00
5996;BME280;3026;53.612;7.278;2024-02-14T08:57:26;101052.38;;;9.94;100.00
5996;BME280;3026;53.612;7.278;2024-02-14T08:59:54;101056.81;;;9.96;100.00
5996;BME280;3026;53.612;7.278;2024-02-14T09:02:23;101053.09;;;9.97;100.00
5996;BME280;3026;53.612;7.278;2024-02-14T09:04:51;101062.97;;;9.98;100.00
5996;BME280;3026;53.612;7.278;2024-02-14T09:07:18;101060.91;;;10.00;100.00
5996;BME280;3026;53.612;7.278;2024-02-14T09:09:46;101057.19;;;10.01;100.00
5996;BME280;3026;53.612;7.278;2024-02-14T09:12:13;101062.47;;;10.02;100.00
5996;BME280;3026;53.612;7.278;2024-02-14T09:14:40;101062.28;;;10.04;100.00
5996;BME280;3026;53.612;7.278;2024-02-14T09:17:08;101072.34;;;10.03;100.00
5996;BME280;3026;53.612;7.278;2024-02-14T09:19:37;101074.91;;;10.05;100.00
5996;BME280;3026;53.612;7.278;2024-02-14T09:22:04;101070.28;;;10.05;100.00
5996;BME280;3026;53.612;7.278;2024-02-14T09:24:32;101064.69;;;10.07;100.00
5996;BME280;3026;53.612;7.278;2024-02-14T09:26:59;101069.13;;;10.08;100.00
5996;BME280;3026;53.612;7.278;2024-02-14T09:29:29;101071.53;;;10.11;100.00
5996;BME280;3026;53.612;7.278;2024-02-14T09:31:56;101071.34;;;10.12;100.00
5996;BME280;3026;53.612;7.278;2024-02-14T09:34:23;101067.44;;;10.15;100.00
5996;BME280;3026;53.612;7.278;2024-02-14T09:36:52;101074.28;;;10.19;100.00
5996;BME280;3026;53.612;7.278;2024-02-14T09:39:23;101066.97;;;10.19;100.00
5996;BME280;3026;53.612;7.278;2024-02-14T09:41:51;101072.97;;;10.23;100.00
5996;BME280;3026;53.612;7.278;2024-02-14T09:44:20;101085.56;;;10.24;100.00
5996;BME280;3026;53.612;7.278;2024-02-14T09:46:49;101077.22;;;10.26;100.00
5996;BME280;3026;53.612;7.278;2024-02-14T09:49:17;101082.69;;;10.26;100.00
5996;BME280;3026;53.612;7.278;2024-02-14T09:51:46;101085.25;;;10.27;100.00
5996;BME280;3026;53.612;7.278;2024-02-14T09:54:19;101086.09;;;10.28;100.00
5996;BME280;3026;53.612;7.278;2024-02-14T09:56:48;101096.81;;;10.29;100.00
5996;BME280;3026;53.612;7.278;2024-02-14T09:59:19;101099.53;;;10.29;100.00
5996;BME280;3026;53.612;7.278;2024-02-14T10:01:47;101095.50;;;10.33;100.00
5996;BME280;3026;53.612;7.278;2024-02-14T10:04:16;101102.66;;;10.34;100.00
5996;BME280;3026;53.612;7.278;2024-02-14T10:06:45;101090.72;;;10.35;100.00
5996;BME280;3026;53.612;7.278;2024-02-14T10:09:20;101101.63;;;10.35;100.00
5996;BME280;3026;53.612;7.278;2024-02-14T10:11:48;101105.38;;;10.34;100.00
5996;BME280;3026;53.612;7.278;2024-02-14T10:14:15;101118.66;;;10.37;100.00
5996;BME280;3026;53.612;7.278;2024-02-14T10:16:42;101118.50;;;10.39;100.00
5996;BME280;3026;53.612;7.278;2024-02-14T10:19:15;101122.06;;;10.39;100.00
5996;BME280;3026;53.612;7.278;2024-02-14T10:21:43;101121.06;;;10.40;100.00
5996;BME280;3026;53.612;7.278;2024-02-14T10:24:11;101128.22;;;10.41;100.00
5996;BME280;3026;53.612;7.278;2024-02-14T10:26:41;101131.66;;;10.43;100.00
5996;BME280;3026;53.612;7.278;2024-02-14T10:29:10;101125.19;;;10.44;100.00
5996;BME280;3026;53.612;7.278;2024-02-14T10:31:40;101128.59;;;10.46;100.00
5996;BME280;3026;53.612;7.278;2024-02-14T10:34:08;101130.28;;;10.47;100.00
5996;BME280;3026;53.612;7.278;2024-02-14T10:36:36;101143.75;;;10.49;100.00
5996;BME280;3026;53.612;7.278;2024-02-14T10:39:05;101143.41;;;10.52;100.00
5996;BME280;3026;53.612;7.278;2024-02-14T10:41:35;101146.00;;;10.54;100.00
5996;BME280;3026;53.612;7.278;2024-02-14T10:44:04;101142.09;;;10.56;100.00
5996;BME280;3026;53.612;7.278;2024-02-14T10:46:33;101145.34;;;10.60;100.00
5996;BME280;3026;53.612;7.278;2024-02-14T10:49:03;101150.78;;;10.60;100.00
5996;BME280;3026;53.612;7.278;2024-02-14T10:51:32;101153.16;;;10.63;100.00
5996;BME280;3026;53.612;7.278;2024-02-14T10:54:01;101141.09;;;10.65;100.00
5996;BME280;3026;53.612;7.278;2024-02-14T10:56:31;101151.66;;;10.68;100.00
5996;BME280;3026;53.612;7.278;2024-02-14T10:59:01;101139.75;;;10.69;100.00
5996;BME280;3026;53.612;7.278;2024-02-14T11:01:31;101148.59;;;10.71;100.00
5996;BME280;3026;53.612;7.278;2024-02-14T11:04:00;101134.81;;;10.73;100.00
5996;BME280;3026;53.612;7.278;2024-02-14T11:06:30;101141.97;;;10.74;100.00
5996;BME280;3026;53.612;7.278;2024-02-14T11:09:01;101141.66;;;10.77;100.00
5996;BME280;3026;53.612;7.278;2024-02-14T11:11:33;101144.38;;;10.77;100.00
5996;BME280;3026;53.612;7.278;2024-02-14T11:14:00;101143.34;;;10.78;100.00
5996;BME280;3026;53.612;7.278;2024-02-14T11:16:28;101146.75;;;10.80;100.00
5996;BME280;3026;53.612;7.278;2024-02-14T11:19:07;101137.56;;;10.81;100.00
5996;BME280;3026;53.612;7.278;2024-02-14T11:21:36;101140.97;;;10.83;100.00
5996;BME280;3026;53.612;7.278;2024-02-14T11:24:05;101142.50;;;10.86;100.00
5996;BME280;3026;53.612;7.278;2024-02-14T11:26:49;101142.31;;;10.87;100.00
5996;BME280;3026;53.612;7.278;2024-02-14T11:29:16;101137.59;;;10.89;100.00
5996;BME280;3026;53.612;7.278;2024-02-14T11:31:45;101134.84;;;10.89;100.00
5996;BME280;3026;53.612;7.278;2024-02-14T11:34:14;101142.00;;;10.90;100.00
5996;BME280;3026;53.612;7.278;2024-02-14T11:36:42;101137.06;;;10.94;100.00
5996;BME280;3026;53.612;7.278;2024-02-14T11:39:11;101140.66;;;10.94;100.00
5996;BME280;3026;53.612;7.278;2024-02-14T11:41:39;101136.91;;;10.95;100.00
5996;BME280;3026;53.612;7.278;2024-02-14T11:44:13;101147.63;;;10.97;100.00
5996;BME280;3026;53.612;7.278;2024-02-14T11:46:47;101144.75;;;10.98;100.00
5996;BME280;3026;53.612;7.278;2024-02-14T11:49:17;101143.56;;;11.01;100.00
5996;BME280;3026;53.612;7.278;2024-02-14T11:51:45;101138.97;;;11.01;100.00
5996;BME280;3026;53.612;7.278;2024-02-14T11:54:15;101142.38;;;11.03;100.00
5996;BME280;3026;53.612;7.278;2024-02-14T11:56:43;101142.38;;;11.03;100.00
5996;BME280;3026;53.612;7.278;2024-02-14T11:59:10;101139.47;;;11.05;100.00
5996;BME280;3026;53.612;7.278;2024-02-14T12:01:38;101149.19;;;11.07;100.00
5996;BME280;3026;53.612;7.278;2024-02-14T12:04:08;101144.59;;;11.08;100.00
5996;BME280;3026;53.612;7.278;2024-02-14T12:06:41;101134.53;;;11.08;100.00
5996;BME280;3026;53.612;7.278;2024-02-14T12:09:09;101139.66;;;11.12;100.00
5996;BME280;3026;53.612;7.278;2024-02-14T12:11:40;101145.13;;;11.12;100.00
5996;BME280;3026;53.612;7.278;2024-02-14T12:14:09;101135.91;;;11.13;100.00
5996;BME280;3026;53.612;7.278;2024-02-14T12:16:37;101142.06;;;11.15;100.00
5996;BME280;3026;53.612;7.278;2024-02-14T12:19:06;101144.44;;;11.18;100.00
5996;BME280;3026;53.612;7.278;2024-02-14T12:21:35;101144.44;;;11.18;100.00
5996;BME280;3026;53.612;7.278;2024-02-14T12:24:06;101146.13;;;11.19;100.00
5996;BME280;3026;53.612;7.278;2024-02-14T12:26:34;101142.38;;;11.20;100.00
5996;BME280;3026;53.612;7.278;2024-02-14T12:29:05;101145.78;;;11.22;100.00
5996;BME280;3026;53.612;7.278;2024-02-14T12:31:33;101149.38;;;11.22;100.00
5996;BME280;3026;53.612;7.278;2024-02-14T12:34:02;101147.50;;;11.23;100.00
5996;BME280;3026;53.612;7.278;2024-02-14T12:36:31;101149.22;;;11.24;100.00
5996;BME280;3026;53.612;7.278;2024-02-14T12:38:58;101148.38;;;11.23;100.00
5996;BME280;3026;53.612;7.278;2024-02-14T12:41:29;101147.50;;;11.23;100.00
5996;BME280;3026;53.612;7.278;2024-02-14T12:43:59;101152.94;;;11.23;100.00
5996;BME280;3026;53.612;7.278;2024-02-14T12:46:26;101154.69;;;11.24;100.00
5996;BME280;3026;53.612;7.278;2024-02-14T12:48:55;101143.78;;;11.24;100.00
5996;BME280;3026;53.612;7.278;2024-02-14T12:51:22;101142.75;;;11.25;100.00
5996;BME280;3026;53.612;7.278;2024-02-14T12:53:55;101150.09;;;11.24;100.00
5996;BME280;3026;53.612;7.278;2024-02-14T12:56:22;101152.63;;;11.26;100.00
5996;BME280;3026;53.612;7.278;2024-02-14T12:58:51;101152.63;;;11.26;100.00
5996;BME280;3026;53.612;7.278;2024-02-14T13:01:18;101144.28;;;11.27;100.00
5996;BME280;3026;53.612;7.278;2024-02-14T13:03:45;101141.38;;;11.29;100.00
5996;BME280;3026;53.612;7.278;2024-02-14T13:06:12;101146.47;;;11.32;100.00
5996;BME280;3026;53.612;7.278;2024-02-14T13:08:42;101147.34;;;11.32;100.00
5996;BME280;3026;53.612;7.278;2024-02-14T13:11:09;101139.16;;;11.32;100.00
5996;BME280;3026;53.612;7.278;2024-02-14T13:13:38;101153.66;;;11.33;100.00